Time;durP1;ratioP1;P1;durP2;ratioP2;P2;SDS_P1;SDS_P2;PMS_P1;PMS_P2;Temp;Humidity;BMP_temperature;BMP_pressure;BME280_temperature;BME280_humidity;BME280_pressure;Samples;Min_cycle;Max_cycle;Signal;HPM_P1;HPM_P2
2021/12/22 00:00:16;;;;;;;23.48;14.98;;;-2.60;99.90;;;;;;5136707;27;20053;-69
2021/12/22 00:02:46;;;;;;;24.95;15.70;;;-2.60;99.90;;;;;;5159651;27;20102;-69
2021/12/22 00:05:17;;;;;;;21.38;14.45;;;-2.70;99.90;;;;;;5139475;27;20039;-70
2021/12/22 00:07:45;;;;;;;21.92;14.35;;;-2.70;99.90;;;;;;5118340;27;20486;-70
2021/12/22 00:10:12;;;;;;;22.83;14.88;;;-2.70;99.90;;;;;;5118116;27;20191;-70
2021/12/22 00:12:39;;;;;;;23.23;15.23;;;-2.60;99.90;;;;;;5117616;27;20055;-70
2021/12/22 00:15:07;;;;;;;24.00;15.57;;;-2.60;99.90;;;;;;5118207;27;20051;-70
2021/12/22 00:17:35;;;;;;;24.17;15.55;;;-2.70;99.90;;;;;;5118158;27;20043;-70
2021/12/22 00:20:02;;;;;;;24.30;14.23;;;-2.60;99.90;;;;;;5117238;27;20132;-70
2021/12/22 00:22:30;;;;;;;26.05;15.43;;;-2.70;99.90;;;;;;5118143;27;20090;-70
2021/12/22 00:24:58;;;;;;;21.30;13.77;;;-2.70;99.90;;;;;;5118051;27;20051;-69
2021/12/22 00:27:25;;;;;;;22.02;13.85;;;-2.70;99.90;;;;;;5117445;27;20100;-70
2021/12/22 00:29:52;;;;;;;25.27;14.35;;;-2.70;99.90;;;;;;5130563;27;20102;-70
2021/12/22 00:32:19;;;;;;;24.65;14.00;;;-2.70;99.90;;;;;;5159227;27;20054;-70
2021/12/22 00:34:50;;;;;;;24.92;14.85;;;-2.70;99.90;;;;;;5158698;27;20077;-69
2021/12/22 00:37:19;;;;;;;22.40;14.10;;;-2.70;99.90;;;;;;5159176;27;20050;-70
2021/12/22 00:39:48;;;;;;;20.00;14.25;;;-2.70;99.90;;;;;;5158642;27;20077;-69
2021/12/22 00:42:15;;;;;;;19.23;13.45;;;-2.80;99.90;;;;;;5158430;27;20046;-70
2021/12/22 00:44:43;;;;;;;26.67;14.30;;;-2.80;99.90;;;;;;5159004;27;20100;-70
2021/12/22 00:47:10;;;;;;;26.08;15.27;;;-2.80;99.90;;;;;;5174155;27;20459;-70
2021/12/22 00:49:37;;;;;;;25.45;14.55;;;-2.80;99.90;;;;;;5137236;27;20093;-71
2021/12/22 00:52:05;;;;;;;24.92;13.98;;;-2.80;99.90;;;;;;5138179;27;20119;-69
2021/12/22 00:54:32;;;;;;;21.33;14.35;;;-2.80;99.90;;;;;;5137543;27;20270;-69
2021/12/22 00:57:04;;;;;;;20.98;14.00;;;-2.80;99.90;;;;;;5137836;27;20093;-72
2021/12/22 00:59:32;;;;;;;26.40;15.85;;;-2.80;99.90;;;;;;5138549;27;20068;-70
2021/12/22 01:01:59;;;;;;;24.58;14.90;;;-2.90;99.90;;;;;;5154144;27;20043;-70
2021/12/22 01:04:26;;;;;;;20.38;12.50;;;-2.80;99.90;;;;;;5155262;27;20093;-70
2021/12/22 01:06:53;;;;;;;21.88;14.20;;;-2.90;99.90;;;;;;5154995;27;20090;-69
2021/12/22 01:09:20;;;;;;;22.08;13.65;;;-2.90;99.90;;;;;;5154146;27;20498;-69
2021/12/22 01:11:47;;;;;;;25.15;13.68;;;-2.90;99.90;;;;;;5154702;27;20077;-69
2021/12/22 01:14:15;;;;;;;20.80;13.38;;;-2.90;99.90;;;;;;5154984;27;20109;-69
2021/12/22 01:16:46;;;;;;;19.65;13.40;;;-2.90;99.90;;;;;;5154156;27;20043;-69
2021/12/22 01:19:18;;;;;;;22.55;13.10;;;-2.90;99.90;;;;;;5154777;27;20130;-69
2021/12/22 01:21:49;;;;;;;21.50;13.82;;;-2.90;99.90;;;;;;5152777;27;20046;-68
2021/12/22 01:24:22;;;;;;;;;;;-3.00;99.90;;;;;;5154626;27;20131;-69
2021/12/22 01:26:56;;;;;;;22.50;13.23;;;-3.00;99.90;;;;;;5154543;27;20029;-69
2021/12/22 01:29:24;;;;;;;19.90;12.70;;;-3.00;99.90;;;;;;5152900;27;20043;-69
2021/12/22 01:31:54;;;;;;;20.85;12.55;;;-3.00;99.90;;;;;;5153729;27;20050;-69
2021/12/22 01:34:21;;;;;;;22.33;13.18;;;-3.10;99.90;;;;;;5154749;27;20057;-69
2021/12/22 01:36:47;;;;;;;23.17;14.73;;;-3.10;99.90;;;;;;5153466;27;20057;-69
2021/12/22 01:39:14;;;;;;;23.13;14.35;;;-3.10;99.90;;;;;;5154381;27;20145;-69
2021/12/22 01:41:41;;;;;;;20.25;13.50;;;-3.10;99.90;;;;;;5154224;27;20115;-69
2021/12/22 01:44:10;;;;;;;30.80;15.73;;;-3.10;99.90;;;;;;5153766;27;20107;-69
2021/12/22 01:49:40;;;;;;;29.95;15.55;;;-3.10;99.90;;;;;;5155386;27;20111;-69
2021/12/22 01:52:08;;;;;;;20.40;13.68;;;-3.20;99.90;;;;;;5165491;27;20057;-69
2021/12/22 01:54:40;;;;;;;22.85;14.93;;;-3.20;99.90;;;;;;5166603;27;20050;-69
2021/12/22 01:57:10;;;;;;;21.73;14.50;;;-2.20;99.90;;;;;;5164647;27;20054;-69
2021/12/22 01:59:38;;;;;;;22.55;13.68;;;-3.20;99.90;;;;;;5153586;27;20475;-69
2021/12/22 02:02:08;;;;;;;19.85;13.40;;;-3.20;99.90;;;;;;5154573;27;20047;-68
2021/12/22 02:04:37;;;;;;;17.85;13.05;;;-3.20;99.90;;;;;;5154526;27;20444;-68
2021/12/22 02:07:05;;;;;;;21.20;13.48;;;-3.30;99.90;;;;;;5153328;27;20077;-69
2021/12/22 02:09:50;;;;;;;28.83;14.82;;;-3.30;99.90;;;;;;5155161;27;20127;-69
2021/12/22 02:12:17;;;;;;;23.23;15.35;;;-3.30;99.90;;;;;;5153047;27;20510;-69
2021/12/22 02:14:45;;;;;;;25.10;14.25;;;-3.30;99.90;;;;;;5143339;27;20450;-69
2021/12/22 02:17:14;;;;;;;23.80;14.77;;;-3.30;99.90;;;;;;5112082;28;20055;-68
2021/12/22 02:19:43;;;;;;;26.40;15.25;;;-3.30;99.90;;;;;;5111061;28;20507;-68
2021/12/22 02:22:13;;;;;;;21.38;14.32;;;-3.30;99.90;;;;;;5112378;28;20462;-69
2021/12/22 02:24:45;;;;;;;23.23;14.70;;;-3.40;99.90;;;;;;5112211;28;20096;-68
2021/12/22 02:27:20;;;;;;;27.45;15.30;;;-3.40;99.90;;;;;;5111608;28;20056;-69
2021/12/22 02:29:49;;;;;;;23.65;15.73;;;-3.30;99.90;;;;;;5122371;27;20038;-69
2021/12/22 02:32:35;;;;;;;25.10;16.45;;;-3.40;99.90;;;;;;5153442;27;20600;-69
2021/12/22 02:35:05;;;;;;;24.30;15.65;;;-3.40;99.90;;;;;;5152741;27;20133;-69
2021/12/22 02:37:41;;;;;;;28.73;16.35;;;-3.40;99.90;;;;;;5153907;27;20046;-69
2021/12/22 02:40:12;;;;;;;27.10;15.98;;;-3.40;99.90;;;;;;5152529;27;20050;-69
2021/12/22 02:42:39;;;;;;;;;;;-3.40;99.90;;;;;;5153969;27;20106;-70
2021/12/22 02:45:07;;;;;;;24.95;16.15;;;-3.40;99.90;;;;;;5153502;27;19979;-69
2021/12/22 02:47:34;;;;;;;26.10;16.38;;;-3.40;99.90;;;;;;5152652;27;20501;-70
2021/12/22 02:50:01;;;;;;;29.70;15.60;;;-3.40;99.90;;;;;;5153104;27;20059;-69
2021/12/22 02:52:36;;;;;;;22.23;15.35;;;-3.40;99.90;;;;;;5153249;27;20058;-70
2021/12/22 02:55:04;;;;;;;29.75;17.02;;;-3.40;99.90;;;;;;5152609;27;20055;-69
2021/12/22 02:57:39;;;;;;;26.10;16.92;;;-3.50;99.90;;;;;;5153118;27;20047;-69
2021/12/22 03:00:32;;;;;;;28.38;17.38;;;-3.50;99.90;;;;;;5151858;27;20354;-69
2021/12/22 03:03:06;;;;;;;23.45;15.35;;;-3.50;99.90;;;;;;5152460;27;20401;-68
2021/12/22 03:05:34;;;;;;;23.58;14.48;;;-3.50;99.90;;;;;;5153378;27;20125;-69
2021/12/22 03:08:03;;;;;;;28.77;15.88;;;-3.50;99.90;;;;;;5151211;27;20093;-69
2021/12/22 03:10:30;;;;;;;25.33;15.38;;;-3.50;99.90;;;;;;5152413;27;20053;-70
2021/12/22 03:13:02;;;;;;;23.25;14.65;;;-3.50;99.90;;;;;;5152986;27;20183;-70
2021/12/22 03:15:30;;;;;;;23.02;15.43;;;-3.60;99.90;;;;;;5152293;27;20090;-69
2021/12/22 03:17:57;;;;;;;25.10;14.65;;;-3.60;99.90;;;;;;5152685;27;20046;-69
2021/12/22 03:20:24;;;;;;;26.85;16.55;;;-3.60;99.90;;;;;;5152578;27;20436;-69
2021/12/22 03:22:51;;;;;;;22.52;14.73;;;-3.60;99.90;;;;;;5152276;27;20059;-69
2021/12/22 03:25:25;;;;;;;27.70;15.40;;;-3.50;99.90;;;;;;5152965;27;20058;-69
2021/12/22 03:27:53;;;;;;;25.60;15.45;;;-3.50;99.90;;;;;;5152741;27;20070;-69
2021/12/22 03:30:23;;;;;;;27.92;15.27;;;-3.60;99.90;;;;;;5140326;27;20043;-69
2021/12/22 03:32:50;;;;;;;29.88;15.73;;;-3.60;99.90;;;;;;5115355;28;20115;-68
2021/12/22 03:35:20;;;;;;;28.58;15.23;;;-3.60;99.90;;;;;;5132877;27;20047;-68
2021/12/22 03:37:49;;;;;;;21.98;14.80;;;-3.60;99.90;;;;;;5114633;28;20139;-68
2021/12/22 03:40:17;;;;;;;23.23;14.57;;;-3.50;99.90;;;;;;5115157;28;20101;-69
2021/12/22 03:42:45;;;;;;;22.75;14.32;;;-3.60;99.90;;;;;;5115580;28;20077;-69
2021/12/22 03:45:12;;;;;;;23.42;14.68;;;-3.60;99.90;;;;;;5114541;28;20044;-69
2021/12/22 03:47:39;;;;;;;22.02;14.23;;;-3.60;99.90;;;;;;5115102;28;20079;-69
2021/12/22 03:50:07;;;;;;;29.38;16.10;;;-3.60;99.90;;;;;;5115030;28;20043;-69
2021/12/22 03:52:34;;;;;;;27.15;15.65;;;-3.60;99.90;;;;;;5115859;28;20524;-69
2021/12/22 03:55:02;;;;;;;27.58;14.95;;;-3.60;99.90;;;;;;5132279;27;20056;-70
2021/12/22 03:57:29;;;;;;;28.60;15.18;;;-3.60;99.90;;;;;;5114640;28;20059;-68
2021/12/22 03:59:59;;;;;;;29.92;15.25;;;-3.60;99.90;;;;;;5144043;27;20078;-68
2021/12/22 04:02:27;;;;;;;22.70;14.88;;;-3.60;99.90;;;;;;5156295;27;20461;-68
2021/12/22 04:04:54;;;;;;;24.00;14.45;;;-3.60;99.90;;;;;;5155307;27;20078;-68
2021/12/22 04:07:21;;;;;;;22.40;14.30;;;-3.70;99.90;;;;;;5156259;27;20103;-68
2021/12/22 04:09:48;;;;;;;24.17;15.45;;;-3.70;99.90;;;;;;5155959;27;20111;-67
2021/12/22 04:12:15;;;;;;;22.75;14.20;;;-3.70;99.90;;;;;;5133457;27;20051;-68
2021/12/22 04:14:42;;;;;;;25.75;15.43;;;-3.60;99.90;;;;;;5114753;28;20549;-68
2021/12/22 04:17:10;;;;;;;23.67;14.82;;;-3.60;99.90;;;;;;5114688;28;20052;-68
2021/12/22 04:19:37;;;;;;;23.83;14.45;;;-3.60;99.90;;;;;;5113871;28;20083;-67
2021/12/22 04:22:06;;;;;;;25.65;14.00;;;-3.60;99.90;;;;;;5114362;28;20051;-68
2021/12/22 04:24:33;;;;;;;22.75;14.82;;;-3.60;99.90;;;;;;5114385;28;20052;-67
2021/12/22 04:26:59;;;;;;;23.30;14.93;;;-3.60;99.90;;;;;;5113699;28;20047;-67
2021/12/22 04:29:26;;;;;;;19.45;14.30;;;-3.60;99.90;;;;;;5118732;27;20089;-67
2021/12/22 04:31:53;;;;;;;23.58;14.27;;;-3.60;99.90;;;;;;5118376;27;20104;-67
2021/12/22 04:34:21;;;;;;;22.25;13.75;;;-3.60;99.90;;;;;;5122419;27;20381;-67
2021/12/22 04:36:48;;;;;;;20.40;13.45;;;-3.60;99.90;;;;;;5128974;27;20060;-67
2021/12/22 04:39:15;;;;;;;23.38;14.02;;;-3.60;99.90;;;;;;5119525;27;20083;-66
2021/12/22 04:41:42;;;;;;;22.80;13.63;;;-3.60;99.90;;;;;;5115115;27;20126;-67
2021/12/22 04:44:09;;;;;;;23.27;15.13;;;-3.60;99.90;;;;;;5121594;27;20054;-67
2021/12/22 04:46:36;;;;;;;22.50;12.02;;;-3.60;99.90;;;;;;5123652;27;20111;-67
2021/12/22 04:49:04;;;;;;;24.85;13.48;;;-3.60;99.90;;;;;;5112236;28;20104;-67
2021/12/22 04:51:34;;;;;;;20.70;13.18;;;-3.60;99.90;;;;;;5112696;28;20075;-67
2021/12/22 04:54:06;;;;;;;24.75;13.32;;;-3.70;99.90;;;;;;5128456;27;20055;-68
2021/12/22 04:56:33;;;;;;;19.55;12.25;;;-3.70;99.90;;;;;;5124364;27;20047;-67
2021/12/22 04:59:00;;;;;;;22.02;13.10;;;-3.70;99.90;;;;;;5114069;27;20108;-68
2021/12/22 05:01:27;;;;;;;24.27;13.30;;;-3.70;99.90;;;;;;5131190;27;20092;-68
2021/12/22 05:03:56;;;;;;;18.65;12.77;;;-3.70;99.90;;;;;;5133342;27;20103;-69
2021/12/22 05:06:23;;;;;;;25.35;11.90;;;-3.70;99.90;;;;;;5118337;27;20078;-67
2021/12/22 05:08:52;;;;;;;19.08;12.05;;;-3.70;99.90;;;;;;5115046;27;20074;-68
2021/12/22 05:11:19;;;;;;;20.88;12.77;;;-3.70;99.90;;;;;;5129599;27;20074;-67
2021/12/22 05:13:46;;;;;;;23.52;12.18;;;-3.70;99.90;;;;;;5129043;27;20054;-68
2021/12/22 05:16:17;;;;;;;20.90;12.05;;;-3.80;99.90;;;;;;5123323;27;20047;-67
2021/12/22 05:18:51;;;;;;;20.50;12.75;;;-3.80;99.90;;;;;;5125831;27;20527;-67
2021/12/22 05:21:21;;;;;;;18.25;12.00;;;-3.80;99.90;;;;;;5132111;27;20053;-68
2021/12/22 05:23:48;;;;;;;17.48;11.85;;;-3.80;99.90;;;;;;5126904;27;20432;-68
2021/12/22 05:26:17;;;;;;;20.23;11.70;;;-3.80;99.90;;;;;;5121001;27;20051;-67
2021/12/22 05:28:44;;;;;;;18.58;12.02;;;-3.90;99.90;;;;;;5128393;27;20112;-67
2021/12/22 05:31:11;;;;;;;19.48;13.02;;;-3.70;99.90;;;;;;5147211;27;20091;-67
2021/12/22 05:33:38;;;;;;;21.48;11.85;;;-3.90;99.90;;;;;;5121282;27;20495;-67
2021/12/22 05:36:05;;;;;;;24.45;12.82;;;-3.90;99.90;;;;;;5118732;27;20110;-67
2021/12/22 05:38:32;;;;;;;21.08;11.57;;;-3.90;99.90;;;;;;5127550;27;20089;-67
2021/12/22 05:40:59;;;;;;;23.92;12.48;;;-3.90;99.90;;;;;;5126398;27;20610;-68
2021/12/22 05:43:27;;;;;;;20.63;12.98;;;-4.00;99.90;;;;;;5128558;27;20544;-68
2021/12/22 05:45:54;;;;;;;21.13;12.43;;;-4.00;99.90;;;;;;5130044;27;20078;-68
2021/12/22 05:48:22;;;;;;;18.73;12.05;;;-4.00;99.90;;;;;;5128951;27;20054;-67
2021/12/22 05:50:52;;;;;;;22.95;11.98;;;-4.00;99.90;;;;;;5129664;27;20042;-69
2021/12/22 05:53:19;;;;;;;20.25;12.18;;;-4.00;99.90;;;;;;5128876;27;20076;-70
2021/12/22 05:55:45;;;;;;;20.73;11.63;;;-4.00;99.90;;;;;;5134910;27;20046;-69
2021/12/22 05:58:12;;;;;;;18.50;12.45;;;-4.00;99.90;;;;;;5132873;27;20047;-68
2021/12/22 06:00:41;;;;;;;21.80;12.68;;;-4.00;99.90;;;;;;5133054;27;20177;-68
2021/12/22 06:03:10;;;;;;;18.95;11.07;;;-4.00;99.90;;;;;;5130935;27;20481;-68
2021/12/22 06:05:37;;;;;;;21.48;11.40;;;-3.90;99.90;;;;;;5132604;27;20478;-67
2021/12/22 06:08:04;;;;;;;20.50;11.52;;;-3.90;99.90;;;;;;5127219;27;20047;-67
2021/12/22 06:10:34;;;;;;;18.23;11.50;;;-4.00;99.90;;;;;;5133534;27;20046;-68
2021/12/22 06:13:01;;;;;;;22.33;12.10;;;-4.10;99.90;;;;;;5131833;27;20053;-68
2021/12/22 06:15:28;;;;;;;18.85;10.98;;;-4.10;99.90;;;;;;5133083;27;20304;-67
2021/12/22 06:17:58;;;;;;;19.33;11.57;;;-4.10;99.90;;;;;;5132626;27;20062;-68
2021/12/22 06:20:25;;;;;;;16.52;11.27;;;-4.10;99.90;;;;;;5130634;27;20054;-68
2021/12/22 06:22:52;;;;;;;27.60;13.07;;;-4.10;99.90;;;;;;5130209;27;20503;-66
2021/12/22 06:25:19;;;;;;;16.63;10.43;;;-4.10;99.90;;;;;;5129104;27;20051;-68
2021/12/22 06:27:46;;;;;;;20.45;12.80;;;-4.10;99.90;;;;;;5130378;27;20461;-66
2021/12/22 06:30:13;;;;;;;19.92;11.23;;;-4.20;99.90;;;;;;5132306;27;20690;-66
2021/12/22 06:32:40;;;;;;;21.73;12.82;;;-4.10;99.90;;;;;;5131903;27;20051;-66
2021/12/22 06:35:09;;;;;;;19.65;11.50;;;-4.20;99.90;;;;;;5130525;27;20042;-66
2021/12/22 06:37:37;;;;;;;17.00;11.38;;;-4.20;99.90;;;;;;5132312;27;20122;-67
2021/12/22 06:40:05;;;;;;;22.30;11.25;;;-4.20;99.90;;;;;;5133488;27;20085;-67
2021/12/22 06:42:33;;;;;;;18.58;11.38;;;-4.20;99.90;;;;;;5132838;27;20103;-66
2021/12/22 06:45:00;;;;;;;18.95;11.98;;;-4.20;99.90;;;;;;5133438;27;20042;-66
2021/12/22 06:47:27;;;;;;;24.52;12.10;;;-4.30;99.90;;;;;;5132640;27;20047;-66
2021/12/22 06:49:53;;;;;;;19.95;11.85;;;-4.30;99.90;;;;;;5132724;27;20112;-66
2021/12/22 06:52:22;;;;;;;22.17;11.90;;;-4.20;99.90;;;;;;5127351;27;20395;-66
2021/12/22 06:54:49;;;;;;;27.23;12.32;;;-4.30;99.90;;;;;;5127148;27;20448;-66
2021/12/22 06:57:19;;;;;;;21.98;11.95;;;-4.30;99.90;;;;;;5129544;27;20122;-65
2021/12/22 06:59:46;;;;;;;17.40;11.13;;;-4.30;99.90;;;;;;5128929;28;20154;-66
2021/12/22 07:02:13;;;;;;;20.58;11.85;;;-4.30;99.90;;;;;;5130431;28;20050;-69
2021/12/22 07:04:40;;;;;;;21.63;11.98;;;-4.30;99.90;;;;;;5125986;27;20069;-68
2021/12/22 07:07:07;;;;;;;21.52;12.13;;;-4.30;99.90;;;;;;5128786;27;20051;-68
2021/12/22 07:09:35;;;;;;;17.63;11.40;;;-4.30;99.90;;;;;;5130227;27;20088;-67
2021/12/22 07:12:02;;;;;;;20.13;11.23;;;-4.30;99.90;;;;;;5133369;27;20100;-67
2021/12/22 07:14:29;;;;;;;23.65;11.60;;;-4.30;99.90;;;;;;5133048;27;20487;-67
2021/12/22 07:16:56;;;;;;;24.60;12.73;;;-4.40;99.90;;;;;;5136236;27;20162;-67
2021/12/22 07:19:23;;;;;;;19.35;11.30;;;-4.40;99.90;;;;;;5131150;27;20732;-67
2021/12/22 07:21:50;;;;;;;19.92;11.27;;;-4.30;99.90;;;;;;5129447;27;20088;-67
2021/12/22 07:24:17;;;;;;;21.70;11.68;;;-4.30;99.90;;;;;;5133677;27;20487;-68
2021/12/22 07:26:45;;;;;;;22.40;12.63;;;-4.30;99.90;;;;;;5131262;27;20108;-67
2021/12/22 07:29:12;;;;;;;20.38;11.88;;;-4.40;99.90;;;;;;5158274;27;20082;-67
2021/12/22 07:31:39;;;;;;;19.40;10.88;;;-4.30;99.90;;;;;;5140229;27;20043;-68
2021/12/22 07:34:12;;;;;;;20.35;12.45;;;-4.30;99.90;;;;;;5144442;27;20107;-68
2021/12/22 07:36:47;;;;;;;25.70;13.18;;;-4.30;99.90;;;;;;5137042;27;20054;-68
2021/12/22 07:39:14;;;;;;;24.90;10.88;;;-4.30;99.90;;;;;;5131556;27;20444;-67
2021/12/22 07:41:41;;;;;;;24.70;13.02;;;-4.30;99.90;;;;;;5131270;27;20047;-68
2021/12/22 07:44:09;;;;;;;20.05;12.13;;;-4.30;99.90;;;;;;5128428;27;20530;-67
2021/12/22 07:46:36;;;;;;;20.52;11.70;;;-4.20;99.90;;;;;;5133415;27;20054;-68
2021/12/22 07:49:03;;;;;;;23.23;11.65;;;-4.20;99.90;;;;;;5130141;27;20100;-67
2021/12/22 07:51:30;;;;;;;21.55;11.93;;;-4.20;99.90;;;;;;5134466;27;20163;-66
2021/12/22 07:53:57;;;;;;;22.95;11.70;;;-4.20;99.90;;;;;;5131402;27;20086;-67
2021/12/22 07:56:24;;;;;;;20.00;11.55;;;-4.20;99.90;;;;;;5129447;27;20043;-67
2021/12/22 07:58:53;;;;;;;19.98;11.20;;;-4.20;99.90;;;;;;5133654;27;20092;-66
2021/12/22 08:01:22;;;;;;;23.20;11.37;;;-4.10;99.90;;;;;;5133463;27;20047;-67
2021/12/22 08:03:49;;;;;;;24.67;12.30;;;-4.10;99.90;;;;;;5134271;27;20051;-67
2021/12/22 08:06:16;;;;;;;25.02;12.30;;;-4.10;99.90;;;;;;5135451;27;20454;-67
2021/12/22 08:08:43;;;;;;;19.67;11.60;;;-3.90;99.90;;;;;;5132931;27;20047;-68
2021/12/22 08:11:10;;;;;;;18.88;11.38;;;-3.90;99.90;;;;;;5133699;27;20039;-67
2021/12/22 08:13:36;;;;;;;19.63;11.98;;;-3.80;99.90;;;;;;5130472;27;20043;-67
2021/12/22 08:16:05;;;;;;;23.25;12.02;;;-3.80;99.90;;;;;;5133348;27;20480;-67
2021/12/22 08:18:33;;;;;;;19.92;11.02;;;-3.60;99.90;;;;;;5135231;27;20410;-67
2021/12/22 08:21:00;;;;;;;23.02;10.45;;;-3.40;99.90;;;;;;5132675;27;20047;-67
2021/12/22 08:23:27;;;;;;;19.35;11.13;;;-3.10;99.90;;;;;;5136467;27;20095;-67
2021/12/22 08:25:54;;;;;;;22.35;10.90;;;-2.80;99.90;;;;;;5130648;27;20054;-67
2021/12/22 08:28:21;;;;;;;20.65;10.90;;;-2.50;99.90;;;;;;5137289;27;20123;-67
2021/12/22 08:30:48;;;;;;;16.70;10.00;;;-2.50;99.90;;;;;;5134236;27;20083;-67
2021/12/22 08:33:20;;;;;;;17.20;9.82;;;-2.40;99.90;;;;;;5146912;27;20099;-66
2021/12/22 08:38:54;;;;;;;16.65;10.55;;;-1.90;99.90;;;;;;5132740;27;20405;-67
2021/12/22 08:41:23;;;;;;;16.75;10.13;;;-1.70;99.90;;;;;;5131644;27;20047;-66
2021/12/22 08:43:50;;;;;;;19.75;10.55;;;-1.60;99.90;;;;;;5132113;27;20083;-66
2021/12/22 08:46:17;;;;;;;17.15;9.57;;;-1.60;99.90;;;;;;5131653;27;20047;-67
2021/12/22 08:48:44;;;;;;;16.60;10.60;;;-1.60;99.90;;;;;;5133923;27;20075;-66
2021/12/22 08:51:13;;;;;;;17.75;10.52;;;-1.50;99.90;;;;;;5151521;27;20042;-67
2021/12/22 08:53:40;;;;;;;18.80;10.00;;;-1.40;99.90;;;;;;5129839;27;20042;-67
2021/12/22 08:56:07;;;;;;;17.77;10.50;;;-1.30;99.90;;;;;;5132274;27;20515;-68
2021/12/22 08:58:35;;;;;;;15.82;10.25;;;-1.30;99.90;;;;;;5129895;27;20067;-68
2021/12/22 09:01:02;;;;;;;16.70;9.57;;;-1.30;99.90;;;;;;5132123;27;20444;-68
2021/12/22 09:03:29;;;;;;;15.05;9.73;;;-1.10;99.90;;;;;;5134434;27;20199;-68
2021/12/22 09:05:56;;;;;;;16.10;9.95;;;-1.20;99.90;;;;;;5128904;27;20051;-68
2021/12/22 09:08:24;;;;;;;17.90;10.68;;;-1.20;99.90;;;;;;5128392;27;20123;-68
2021/12/22 09:10:51;;;;;;;19.67;10.30;;;-1.20;99.90;;;;;;5126759;27;20047;-66
2021/12/22 09:13:19;;;;;;;19.10;10.02;;;-1.20;99.90;;;;;;5148633;27;20043;-67
2021/12/22 09:15:47;;;;;;;17.50;10.75;;;-1.20;99.90;;;;;;5131347;27;20514;-67
2021/12/22 09:18:14;;;;;;;16.60;10.13;;;-1.30;99.90;;;;;;5133298;27;20075;-66
2021/12/22 09:20:41;;;;;;;17.85;10.18;;;-1.30;99.90;;;;;;5130279;27;20051;-66
2021/12/22 09:23:07;;;;;;;17.40;9.90;;;-1.20;99.90;;;;;;5131197;27;20039;-67
2021/12/22 09:25:36;;;;;;;19.77;10.00;;;-1.20;99.90;;;;;;5130795;27;20118;-66
2021/12/22 09:28:05;;;;;;;17.17;9.75;;;-1.10;99.90;;;;;;5132051;27;20086;-66
2021/12/22 09:30:35;;;;;;;17.60;10.55;;;-0.80;99.90;;;;;;5131346;27;20049;-67
2021/12/22 09:33:03;;;;;;;21.30;10.52;;;-0.50;99.90;;;;;;5132464;27;20138;-68
2021/12/22 09:35:30;;;;;;;19.98;10.68;;;-0.30;99.90;;;;;;5128655;27;20070;-67
2021/12/22 09:37:57;;;;;;;16.15;10.85;;;0.20;99.90;;;;;;5129757;27;20094;-68
2021/12/22 09:40:24;;;;;;;16.70;9.75;;;0.80;99.90;;;;;;5151481;27;20038;-69
2021/12/22 09:42:52;;;;;;;17.02;10.13;;;1.30;99.90;;;;;;5130562;27;20070;-69
2021/12/22 09:45:23;;;;;;;17.00;10.75;;;1.90;99.90;;;;;;5130691;27;20468;-69
2021/12/22 09:48:15;;;;;;;16.30;9.65;;;2.40;99.90;;;;;;5152911;27;20130;-70
2021/12/22 09:50:49;;;;;;;18.75;10.80;;;2.70;99.90;;;;;;5150045;27;20043;-70
2021/12/22 09:53:18;;;;;;;18.83;10.43;;;2.80;99.90;;;;;;5139778;27;20137;-69
2021/12/22 09:55:46;;;;;;;17.88;10.13;;;2.80;99.90;;;;;;5130672;27;20095;-70
2021/12/22 09:58:14;;;;;;;14.50;8.88;;;2.60;99.90;;;;;;5129125;27;20102;-70
2021/12/22 10:00:43;;;;;;;15.35;9.77;;;2.50;99.90;;;;;;5132995;27;20471;-70
2021/12/22 10:03:11;;;;;;;19.83;9.95;;;2.60;99.90;;;;;;5133316;27;20043;-70
2021/12/22 10:05:40;;;;;;;17.38;10.02;;;2.80;99.90;;;;;;5127572;27;20039;-69
2021/12/22 10:08:08;;;;;;;18.70;10.23;;;2.80;99.90;;;;;;5129880;27;20141;-70
2021/12/22 10:10:37;;;;;;;14.63;8.95;;;2.90;99.90;;;;;;5136994;27;20042;-69
2021/12/22 10:13:08;;;;;;;15.50;9.85;;;3.20;99.90;;;;;;5130255;27;20047;-69
2021/12/22 10:15:38;;;;;;;13.98;8.70;;;3.70;99.90;;;;;;5131665;27;20127;-69
2021/12/22 10:18:10;;;;;;;16.38;9.27;;;4.10;99.90;;;;;;5133207;27;20185;-69
2021/12/22 10:20:37;;;;;;;16.40;9.35;;;4.40;99.90;;;;;;5127657;27;20047;-70
2021/12/22 10:23:20;;;;;;;17.23;10.05;;;4.70;99.90;;;;;;5130733;27;20114;-70
2021/12/22 10:25:52;;;;;;;15.30;9.77;;;5.20;99.90;;;;;;5127685;27;20089;-70
2021/12/22 10:28:19;;;;;;;15.05;8.50;;;5.40;99.90;;;;;;5133381;27;20038;-68
2021/12/22 10:30:49;;;;;;;13.60;8.98;;;5.80;99.90;;;;;;5129812;27;20543;-70
2021/12/22 10:33:18;;;;;;;17.67;9.55;;;6.00;99.90;;;;;;5130731;27;20054;-69
2021/12/22 10:35:47;;;;;;;18.80;9.65;;;5.90;99.90;;;;;;5129286;27;20502;-70
2021/12/22 10:38:16;;;;;;;14.75;9.68;;;5.90;99.90;;;;;;5131685;27;20114;-70
2021/12/22 10:40:46;;;;;;;19.05;8.60;;;6.40;99.90;;;;;;5132432;27;20050;-70
2021/12/22 10:43:20;;;;;;;17.63;9.65;;;6.70;99.90;;;;;;5129052;27;20043;-71
2021/12/22 10:45:51;;;;;;;12.13;7.72;;;6.30;99.90;;;;;;5131572;27;20054;-70
2021/12/22 10:51:08;;;;;;;14.70;9.85;;;5.00;99.90;;;;;;5131278;27;20527;-70
2021/12/22 10:53:43;;;;;;;15.63;8.63;;;4.30;99.90;;;;;;5133635;27;20103;-70
2021/12/22 10:56:10;;;;;;;16.45;8.65;;;4.00;99.90;;;;;;5154023;27;20074;-69
2021/12/22 10:58:36;;;;;;;15.00;8.05;;;3.70;99.90;;;;;;5131019;27;20087;-69
2021/12/22 11:01:11;;;;;;;14.98;9.27;;;3.40;99.90;;;;;;5153774;27;20144;-69
2021/12/22 11:03:47;;;;;;;13.93;9.35;;;3.20;99.90;;;;;;5142892;27;20521;-69
2021/12/22 11:06:21;;;;;;;13.48;7.90;;;3.00;99.90;;;;;;5135066;27;20057;-69
2021/12/22 11:09:00;;;;;;;13.93;8.55;;;3.00;99.90;;;;;;5134697;27;20119;-70
2021/12/22 11:11:33;;;;;;;19.38;8.65;;;3.00;99.90;;;;;;5135247;27;20050;-70
2021/12/22 11:14:06;;;;;;;13.77;8.30;;;2.90;99.90;;;;;;5134409;27;20096;-69
2021/12/22 11:17:00;;;;;;;15.43;9.20;;;2.90;99.90;;;;;;5134729;27;20467;-69
2021/12/22 11:19:29;;;;;;;14.15;7.57;;;2.80;99.90;;;;;;5135077;27;20047;-69
2021/12/22 11:22:02;;;;;;;14.93;8.18;;;2.70;99.90;;;;;;5134386;27;20039;-69
2021/12/22 11:24:30;;;;;;;14.43;8.73;;;2.90;99.90;;;;;;5135030;27;20047;-69
2021/12/22 11:26:57;;;;;;;13.50;7.93;;;3.20;99.90;;;;;;5135201;27;20494;-70
2021/12/22 11:29:24;;;;;;;12.48;7.85;;;3.40;99.90;;;;;;5134315;27;20055;-70
2021/12/22 11:31:53;;;;;;;15.00;8.88;;;3.60;99.90;;;;;;5135084;27;20039;-70
2021/12/22 11:34:21;;;;;;;20.33;7.80;;;4.10;99.90;;;;;;5132016;27;20047;-70
2021/12/22 11:36:50;;;;;;;14.25;9.18;;;4.60;99.90;;;;;;5132228;28;20507;-70
2021/12/22 11:39:21;;;;;;;13.38;8.95;;;5.10;99.90;;;;;;5114409;28;20043;-70
2021/12/22 11:41:57;;;;;;;14.55;8.20;;;5.50;99.90;;;;;;5113694;28;20062;-69
2021/12/22 11:44:25;;;;;;;13.30;8.30;;;6.30;99.90;;;;;;5114532;28;20051;-70
2021/12/22 11:46:57;;;;;;;14.15;8.95;;;6.70;99.90;;;;;;5114349;28;20429;-70
2021/12/22 11:49:24;;;;;;;12.88;8.52;;;6.70;99.90;;;;;;5113471;28;20145;-70
2021/12/22 11:51:51;;;;;;;11.35;7.70;;;6.50;99.90;;;;;;5116431;27;20506;-70
2021/12/22 11:54:24;;;;;;;11.60;7.72;;;6.00;99.90;;;;;;5135116;27;20101;-70
2021/12/22 11:56:53;;;;;;;13.48;9.00;;;5.80;99.90;;;;;;5117497;27;20062;-69
2021/12/22 11:59:36;;;;;;;12.55;8.30;;;5.70;99.90;;;;;;5135976;27;20087;-70
2021/12/22 12:02:26;;;;;;;15.20;8.07;;;5.40;99.90;;;;;;5133364;27;20411;-70
2021/12/22 12:04:56;;;;;;;11.03;7.70;;;5.00;99.90;;;;;;5117048;27;20158;-69
2021/12/22 12:07:42;;;;;;;15.68;9.40;;;4.40;99.90;;;;;;5136803;27;20055;-70
2021/12/22 12:10:42;;;;;;;13.23;7.93;;;4.00;99.90;;;;;;5128207;27;20518;-69
2021/12/22 12:13:37;;;;;;;12.13;8.43;;;3.70;99.90;;;;;;5138356;27;20118;-69
2021/12/22 12:22:09;;;;;;;15.88;8.55;;;3.10;99.90;;;;;;5137861;27;20486;-69
2021/12/22 12:24:59;;;;;;;12.70;8.15;;;2.70;99.90;;;;;;5137411;27;20054;-69
2021/12/22 12:27:49;;;;;;;15.65;8.82;;;2.40;99.90;;;;;;5140576;27;20082;-69
2021/12/22 12:30:26;;;;;;;14.80;8.95;;;2.20;99.90;;;;;;5158393;27;20058;-68
2021/12/22 12:33:20;;;;;;;14.88;8.18;;;2.30;99.90;;;;;;5158484;27;20061;-69
2021/12/22 12:35:54;;;;;;;14.43;8.35;;;2.70;99.90;;;;;;5158623;27;20118;-70
2021/12/22 12:38:24;;;;;;;12.20;7.75;;;3.10;99.90;;;;;;5157867;27;20058;-69
2021/12/22 12:41:13;;;;;;;16.83;8.63;;;3.20;99.90;;;;;;5156678;27;20060;-70
2021/12/22 12:43:55;;;;;;;15.00;8.25;;;3.50;99.90;;;;;;5158344;27;20038;-70
2021/12/22 12:46:54;;;;;;;12.68;8.40;;;4.00;99.90;;;;;;5157822;27;20595;-71
2021/12/22 12:49:39;;;;;;;14.43;9.15;;;4.30;99.90;;;;;;5158433;27;20046;-70
2021/12/22 12:52:10;;;;;;;11.65;7.40;;;4.50;99.90;;;;;;5158152;27;20061;-69
2021/12/22 12:54:47;;;;;;;12.88;7.88;;;4.80;99.90;;;;;;5133455;27;20099;-69
2021/12/22 12:57:25;;;;;;;13.07;8.15;;;5.00;99.90;;;;;;5134408;27;20043;-68
2021/12/22 12:59:55;;;;;;;12.13;7.80;;;5.00;99.90;;;;;;5140195;27;20057;-70